sensor_id;sensor_type;location;lat;lon;timestamp;temperature;humidity
5055;DHT22;13829;48.990;8.346;2023-04-06T00:00:49;2.40;99.90
5055;DHT22;13829;48.990;8.346;2023-04-06T00:03:18;2.50;99.90
5055;DHT22;13829;48.990;8.346;2023-04-06T00:05:47;2.60;99.90
5055;DHT22;13829;48.990;8.346;2023-04-06T00:08:16;2.60;99.90
5055;DHT22;13829;48.990;8.346;2023-04-06T00:10:43;2.50;99.90
5055;DHT22;13829;48.990;8.346;2023-04-06T00:13:11;2.40;99.90
5055;DHT22;13829;48.990;8.346;2023-04-06T00:15:38;2.30;99.90
5055;DHT22;13829;48.990;8.346;2023-04-06T00:18:05;2.30;99.90
5055;DHT22;13829;48.990;8.346;2023-04-06T00:20:32;2.30;99.90
5055;DHT22;13829;48.990;8.346;2023-04-06T00:22:59;2.30;99.90
5055;DHT22;13829;48.990;8.346;2023-04-06T00:25:28;2.20;99.90
5055;DHT22;13829;48.990;8.346;2023-04-06T00:27:55;2.20;99.90
5055;DHT22;13829;48.990;8.346;2023-04-06T00:30:22;2.20;99.90
5055;DHT22;13829;48.990;8.346;2023-04-06T00:32:49;2.20;99.90
5055;DHT22;13829;48.990;8.346;2023-04-06T00:35:17;2.10;99.90
5055;DHT22;13829;48.990;8.346;2023-04-06T00:37:46;2.10;99.90
5055;DHT22;13829;48.990;8.346;2023-04-06T00:40:14;2.10;99.90
5055;DHT22;13829;48.990;8.346;2023-04-06T00:42:43;2.30;99.90
5055;DHT22;13829;48.990;8.346;2023-04-06T00:45:10;2.30;99.90
5055;DHT22;13829;48.990;8.346;2023-04-06T00:47:38;2.30;99.90
5055;DHT22;13829;48.990;8.346;2023-04-06T00:50:06;2.20;99.90
5055;DHT22;13829;48.990;8.346;2023-04-06T00:52:34;2.10;99.90
5055;DHT22;13829;48.990;8.346;2023-04-06T00:55:01;2.00;99.90
5055;DHT22;13829;48.990;8.346;2023-04-06T00:57:28;1.80;99.90
5055;DHT22;13829;48.990;8.346;2023-04-06T00:59:57;1.90;99.90
5055;DHT22;13829;48.990;8.346;2023-04-06T01:02:25;2.00;99.90
5055;DHT22;13829;48.990;8.346;2023-04-06T01:04:55;2.00;99.90
5055;DHT22;13829;48.990;8.346;2023-04-06T01:07:23;2.00;99.90
5055;DHT22;13829;48.990;8.346;2023-04-06T01:09:52;1.90;99.90
5055;DHT22;13829;48.990;8.346;2023-04-06T01:12:20;1.80;99.90
5055;DHT22;13829;48.990;8.346;2023-04-06T01:14:47;1.70;99.90
5055;DHT22;13829;48.990;8.346;2023-04-06T01:17:16;1.80;99.90
5055;DHT22;13829;48.990;8.346;2023-04-06T01:19:43;1.80;99.90
5055;DHT22;13829;48.990;8.346;2023-04-06T01:22:15;1.80;99.90
5055;DHT22;13829;48.990;8.346;2023-04-06T01:24:43;1.70;99.90
5055;DHT22;13829;48.990;8.346;2023-04-06T01:27:11;1.70;99.90
5055;DHT22;13829;48.990;8.346;2023-04-06T01:29:38;1.70;99.90
5055;DHT22;13829;48.990;8.346;2023-04-06T01:32:07;1.80;99.90
5055;DHT22;13829;48.990;8.346;2023-04-06T01:34:34;1.70;99.90
5055;DHT22;13829;48.990;8.346;2023-04-06T01:37:02;1.70;99.90
5055;DHT22;13829;48.990;8.346;2023-04-06T01:39:30;1.70;99.90
5055;DHT22;13829;48.990;8.346;2023-04-06T01:41:57;1.70;99.90
5055;DHT22;13829;48.990;8.346;2023-04-06T01:44:25;1.60;99.90
5055;DHT22;13829;48.990;8.346;2023-04-06T01:46:55;1.60;99.90
5055;DHT22;13829;48.990;8.346;2023-04-06T01:49:23;1.50;99.90
5055;DHT22;13829;48.990;8.346;2023-04-06T01:51:50;1.50;99.90
5055;DHT22;13829;48.990;8.346;2023-04-06T01:54:17;1.50;99.90
5055;DHT22;13829;48.990;8.346;2023-04-06T01:56:46;1.50;99.90
5055;DHT22;13829;48.990;8.346;2023-04-06T01:59:15;1.50;99.90
5055;DHT22;13829;48.990;8.346;2023-04-06T02:01:42;1.40;99.90
5055;DHT22;13829;48.990;8.346;2023-04-06T02:04:10;1.40;99.90
5055;DHT22;13829;48.990;8.346;2023-04-06T02:06:39;1.40;99.90
5055;DHT22;13829;48.990;8.346;2023-04-06T02:09:06;1.30;99.90
5055;DHT22;13829;48.990;8.346;2023-04-06T02:11:33;1.40;99.90
5055;DHT22;13829;48.990;8.346;2023-04-06T02:14:02;1.40;99.90
5055;DHT22;13829;48.990;8.346;2023-04-06T02:16:29;1.30;99.90
5055;DHT22;13829;48.990;8.346;2023-04-06T02:18:56;1.30;99.90
5055;DHT22;13829;48.990;8.346;2023-04-06T02:21:23;1.30;99.90
5055;DHT22;13829;48.990;8.346;2023-04-06T02:23:51;1.40;99.90
5055;DHT22;13829;48.990;8.346;2023-04-06T02:26:18;1.40;99.90
5055;DHT22;13829;48.990;8.346;2023-04-06T02:28:45;1.40;99.90
5055;DHT22;13829;48.990;8.346;2023-04-06T02:31:14;1.40;99.90
5055;DHT22;13829;48.990;8.346;2023-04-06T02:33:41;1.40;99.90
5055;DHT22;13829;48.990;8.346;2023-04-06T02:36:08;1.50;99.90
5055;DHT22;13829;48.990;8.346;2023-04-06T02:38:35;1.40;99.90
5055;DHT22;13829;48.990;8.346;2023-04-06T02:41:02;1.40;99.90
5055;DHT22;13829;48.990;8.346;2023-04-06T02:43:30;1.30;99.90
5055;DHT22;13829;48.990;8.346;2023-04-06T02:45:57;1.20;99.90
5055;DHT22;13829;48.990;8.346;2023-04-06T02:48:25;1.20;99.90
5055;DHT22;13829;48.990;8.346;2023-04-06T02:50:52;1.20;99.90
5055;DHT22;13829;48.990;8.346;2023-04-06T02:53:20;1.20;99.90
5055;DHT22;13829;48.990;8.346;2023-04-06T02:55:47;1.30;99.90
5055;DHT22;13829;48.990;8.346;2023-04-06T02:58:14;1.10;99.90
5055;DHT22;13829;48.990;8.346;2023-04-06T03:00:41;1.10;99.90
5055;DHT22;13829;48.990;8.346;2023-04-06T03:03:08;1.10;99.90
5055;DHT22;13829;48.990;8.346;2023-04-06T03:05:37;1.10;99.90
5055;DHT22;13829;48.990;8.346;2023-04-06T03:08:04;1.10;99.90
5055;DHT22;13829;48.990;8.346;2023-04-06T03:10:31;1.10;99.90
5055;DHT22;13829;48.990;8.346;2023-04-06T03:12:58;1.10;99.90
5055;DHT22;13829;48.990;8.346;2023-04-06T03:15:25;1.10;99.90
5055;DHT22;13829;48.990;8.346;2023-04-06T03:17:52;1.10;99.90
5055;DHT22;13829;48.990;8.346;2023-04-06T03:20:19;1.20;99.90
5055;DHT22;13829;48.990;8.346;2023-04-06T03:22:48;1.20;99.90
5055;DHT22;13829;48.990;8.346;2023-04-06T03:25:15;1.10;99.90
5055;DHT22;13829;48.990;8.346;2023-04-06T03:27:42;1.10;99.90
5055;DHT22;13829;48.990;8.346;2023-04-06T03:30:10;1.10;99.90
5055;DHT22;13829;48.990;8.346;2023-04-06T03:32:37;1.10;99.90
5055;DHT22;13829;48.990;8.346;2023-04-06T03:35:05;1.10;99.90
5055;DHT22;13829;48.990;8.346;2023-04-06T03:37:32;1.10;99.90
5055;DHT22;13829;48.990;8.346;2023-04-06T03:40:01;1.10;99.90
5055;DHT22;13829;48.990;8.346;2023-04-06T03:42:28;1.20;99.90
5055;DHT22;13829;48.990;8.346;2023-04-06T03:44:56;1.00;99.90
5055;DHT22;13829;48.990;8.346;2023-04-06T03:47:23;1.00;99.90
5055;DHT22;13829;48.990;8.346;2023-04-06T03:49:50;1.00;99.90
5055;DHT22;13829;48.990;8.346;2023-04-06T03:52:18;0.90;99.90
5055;DHT22;13829;48.990;8.346;2023-04-06T03:54:45;0.90;99.90
5055;DHT22;13829;48.990;8.346;2023-04-06T03:57:13;0.90;99.90
5055;DHT22;13829;48.990;8.346;2023-04-06T03:59:41;0.90;99.90
5055;DHT22;13829;48.990;8.346;2023-04-06T04:02:08;0.90;99.90
5055;DHT22;13829;48.990;8.346;2023-04-06T04:04:35;0.90;99.90
5055;DHT22;13829;48.990;8.346;2023-04-06T04:07:02;0.90;99.90
5055;DHT22;13829;48.990;8.346;2023-04-06T04:09:29;0.90;99.90
5055;DHT22;13829;48.990;8.346;2023-04-06T04:11:56;0.90;99.90
5055;DHT22;13829;48.990;8.346;2023-04-06T04:14:25;0.90;99.90
5055;DHT22;13829;48.990;8.346;2023-04-06T04:16:52;0.80;99.90
5055;DHT22;13829;48.990;8.346;2023-04-06T04:19:19;0.70;99.90
5055;DHT22;13829;48.990;8.346;2023-04-06T04:21:46;0.70;99.90
5055;DHT22;13829;48.990;8.346;2023-04-06T04:24:14;0.70;99.90
5055;DHT22;13829;48.990;8.346;2023-04-06T04:26:41;0.80;99.90
5055;DHT22;13829;48.990;8.346;2023-04-06T04:29:08;0.80;99.90
5055;DHT22;13829;48.990;8.346;2023-04-06T04:31:38;0.80;99.90
5055;DHT22;13829;48.990;8.346;2023-04-06T04:34:05;0.80;99.90
5055;DHT22;13829;48.990;8.346;2023-04-06T04:36:33;0.80;99.90
5055;DHT22;13829;48.990;8.346;2023-04-06T04:39:01;0.90;99.90
5055;DHT22;13829;48.990;8.346;2023-04-06T04:41:28;0.80;99.90
5055;DHT22;13829;48.990;8.346;2023-04-06T04:43:55;0.80;99.90
5055;DHT22;13829;48.990;8.346;2023-04-06T04:46:22;0.80;99.90
5055;DHT22;13829;48.990;8.346;2023-04-06T04:48:51;0.80;99.90
5055;DHT22;13829;48.990;8.346;2023-04-06T04:51:18;0.80;99.90
5055;DHT22;13829;48.990;8.346;2023-04-06T04:53:46;0.80;99.90
5055;DHT22;13829;48.990;8.346;2023-04-06T04:56:13;0.80;99.90
5055;DHT22;13829;48.990;8.346;2023-04-06T04:58:40;0.80;99.90
5055;DHT22;13829;48.990;8.346;2023-04-06T05:01:07;0.80;99.90
5055;DHT22;13829;48.990;8.346;2023-04-06T05:03:35;0.80;99.90
5055;DHT22;13829;48.990;8.346;2023-04-06T05:06:05;0.80;99.90
5055;DHT22;13829;48.990;8.346;2023-04-06T05:08:33;0.80;99.90
5055;DHT22;13829;48.990;8.346;2023-04-06T05:11:00;0.90;99.90
5055;DHT22;13829;48.990;8.346;2023-04-06T05:13:27;0.90;99.90
5055;DHT22;13829;48.990;8.346;2023-04-06T05:15:56;0.90;99.90
5055;DHT22;13829;48.990;8.346;2023-04-06T05:18:23;1.00;99.90
5055;DHT22;13829;48.990;8.346;2023-04-06T05:20:50;1.00;99.90
5055;DHT22;13829;48.990;8.346;2023-04-06T05:23:19;1.00;99.90
5055;DHT22;13829;48.990;8.346;2023-04-06T05:25:46;1.10;99.90
5055;DHT22;13829;48.990;8.346;2023-04-06T05:28:13;1.10;99.90
5055;DHT22;13829;48.990;8.346;2023-04-06T05:30:42;1.10;99.90
5055;DHT22;13829;48.990;8.346;2023-04-06T05:33:09;1.10;99.90
5055;DHT22;13829;48.990;8.346;2023-04-06T05:35:36;1.20;99.90
5055;DHT22;13829;48.990;8.346;2023-04-06T05:38:07;1.20;99.90
5055;DHT22;13829;48.990;8.346;2023-04-06T05:40:36;1.20;99.90
5055;DHT22;13829;48.990;8.346;2023-04-06T05:43:03;1.30;99.90
5055;DHT22;13829;48.990;8.346;2023-04-06T05:45:30;1.30;99.90
5055;DHT22;13829;48.990;8.346;2023-04-06T05:47:58;1.40;99.90
5055;DHT22;13829;48.990;8.346;2023-04-06T05:50:25;1.50;99.90
5055;DHT22;13829;48.990;8.346;2023-04-06T05:52:52;1.60;99.90
5055;DHT22;13829;48.990;8.346;2023-04-06T05:55:19;1.70;99.90
5055;DHT22;13829;48.990;8.346;2023-04-06T05:57:47;2.00;99.90
5055;DHT22;13829;48.990;8.346;2023-04-06T06:00:15;1.90;99.90
5055;DHT22;13829;48.990;8.346;2023-04-06T06:02:42;1.90;99.90
5055;DHT22;13829;48.990;8.346;2023-04-06T06:05:10;2.00;99.90
5055;DHT22;13829;48.990;8.346;2023-04-06T06:07:37;2.10;99.90
5055;DHT22;13829;48.990;8.346;2023-04-06T06:10:05;2.30;99.90
5055;DHT22;13829;48.990;8.346;2023-04-06T06:12:33;2.40;99.90
5055;DHT22;13829;48.990;8.346;2023-04-06T06:15:02;2.60;99.90
5055;DHT22;13829;48.990;8.346;2023-04-06T06:17:29;2.70;99.90
5055;DHT22;13829;48.990;8.346;2023-04-06T06:19:56;2.80;99.90
5055;DHT22;13829;48.990;8.346;2023-04-06T06:22:23;3.00;99.90
5055;DHT22;13829;48.990;8.346;2023-04-06T06:24:51;3.20;99.90
5055;DHT22;13829;48.990;8.346;2023-04-06T06:27:18;3.30;99.90
5055;DHT22;13829;48.990;8.346;2023-04-06T06:29:45;3.50;99.90
5055;DHT22;13829;48.990;8.346;2023-04-06T06:32:13;3.60;99.90
5055;DHT22;13829;48.990;8.346;2023-04-06T06:34:41;3.70;99.90
5055;DHT22;13829;48.990;8.346;2023-04-06T06:37:08;3.90;99.90
5055;DHT22;13829;48.990;8.346;2023-04-06T06:39:35;4.00;99.90
5055;DHT22;13829;48.990;8.346;2023-04-06T06:42:02;4.30;99.90
5055;DHT22;13829;48.990;8.346;2023-04-06T06:44:29;4.50;99.90
5055;DHT22;13829;48.990;8.346;2023-04-06T06:46:59;4.70;99.90
5055;DHT22;13829;48.990;8.346;2023-04-06T06:49:28;4.90;99.90
5055;DHT22;13829;48.990;8.346;2023-04-06T06:51:55;5.60;99.90
5055;DHT22;13829;48.990;8.346;2023-04-06T06:54:22;7.00;98.60
5055;DHT22;13829;48.990;8.346;2023-04-06T06:56:49;8.50;95.40
5055;DHT22;13829;48.990;8.346;2023-04-06T06:59:16;9.60;92.80
5055;DHT22;13829;48.990;8.346;2023-04-06T07:01:43;10.70;89.50
5055;DHT22;13829;48.990;8.346;2023-04-06T07:04:10;11.50;85.30
5055;DHT22;13829;48.990;8.346;2023-04-06T07:06:39;12.20;81.80
5055;DHT22;13829;48.990;8.346;2023-04-06T07:09:06;12.70;76.80
5055;DHT22;13829;48.990;8.346;2023-04-06T07:11:33;13.20;73.30
5055;DHT22;13829;48.990;8.346;2023-04-06T07:14:00;13.40;75.00
5055;DHT22;13829;48.990;8.346;2023-04-06T07:16:27;13.70;72.80
5055;DHT22;13829;48.990;8.346;2023-04-06T07:18:56;14.30;70.00
5055;DHT22;13829;48.990;8.346;2023-04-06T07:21:23;14.40;68.60
5055;DHT22;13829;48.990;8.346;2023-04-06T07:23:52;14.60;66.20
5055;DHT22;13829;48.990;8.346;2023-04-06T07:26:19;14.80;69.50
5055;DHT22;13829;48.990;8.346;2023-04-06T07:28:46;15.80;65.30
5055;DHT22;13829;48.990;8.346;2023-04-06T07:31:13;16.00;63.00
5055;DHT22;13829;48.990;8.346;2023-04-06T07:33:40;16.60;61.80
5055;DHT22;13829;48.990;8.346;2023-04-06T07:36:08;17.20;64.00
5055;DHT22;13829;48.990;8.346;2023-04-06T07:38:35;17.30;60.00
5055;DHT22;13829;48.990;8.346;2023-04-06T07:41:03;17.70;59.90
5055;DHT22;13829;48.990;8.346;2023-04-06T07:43:30;17.80;60.50
5055;DHT22;13829;48.990;8.346;2023-04-06T07:45:57;18.00;57.90
5055;DHT22;13829;48.990;8.346;2023-04-06T07:48:25;17.70;57.20
5055;DHT22;13829;48.990;8.346;2023-04-06T07:51:00;17.40;58.20
5055;DHT22;13829;48.990;8.346;2023-04-06T07:53:28;17.40;57.80
5055;DHT22;13829;48.990;8.346;2023-04-06T07:55:55;17.90;57.30
5055;DHT22;13829;48.990;8.346;2023-04-06T07:58:24;17.10;56.30
5055;DHT22;13829;48.990;8.346;2023-04-06T08:00:51;18.10;56.60
5055;DHT22;13829;48.990;8.346;2023-04-06T08:03:20;18.50;56.80
5055;DHT22;13829;48.990;8.346;2023-04-06T08:05:50;18.40;55.50
5055;DHT22;13829;48.990;8.346;2023-04-06T08:08:19;18.90;56.40
5055;DHT22;13829;48.990;8.346;2023-04-06T08:10:47;18.90;57.00
5055;DHT22;13829;48.990;8.346;2023-04-06T08:13:14;18.00;54.60
5055;DHT22;13829;48.990;8.346;2023-04-06T08:15:43;17.60;55.50
5055;DHT22;13829;48.990;8.346;2023-04-06T08:18:11;17.70;58.20
5055;DHT22;13829;48.990;8.346;2023-04-06T08:20:38;17.40;59.10
5055;DHT22;13829;48.990;8.346;2023-04-06T08:23:06;16.90;57.40
5055;DHT22;13829;48.990;8.346;2023-04-06T08:25:35;16.80;60.70
5055;DHT22;13829;48.990;8.346;2023-04-06T08:28:03;16.60;59.50
5055;DHT22;13829;48.990;8.346;2023-04-06T08:30:30;16.20;59.00
5055;DHT22;13829;48.990;8.346;2023-04-06T08:32:59;15.70;61.00
5055;DHT22;13829;48.990;8.346;2023-04-06T08:35:26;15.30;63.60
5055;DHT22;13829;48.990;8.346;2023-04-06T08:37:53;15.50;61.80
5055;DHT22;13829;48.990;8.346;2023-04-06T08:40:20;15.30;63.90
5055;DHT22;13829;48.990;8.346;2023-04-06T08:42:50;15.20;65.10
5055;DHT22;13829;48.990;8.346;2023-04-06T08:45:21;15.20;65.80
5055;DHT22;13829;48.990;8.346;2023-04-06T08:47:49;15.10;62.50
5055;DHT22;13829;48.990;8.346;2023-04-06T08:50:19;14.90;62.60
5055;DHT22;13829;48.990;8.346;2023-04-06T08:52:48;14.90;64.20
5055;DHT22;13829;48.990;8.346;2023-04-06T08:55:16;14.70;62.50
5055;DHT22;13829;48.990;8.346;2023-04-06T08:57:43;14.50;66.50
5055;DHT22;13829;48.990;8.346;2023-04-06T09:00:14;14.70;67.00
5055;DHT22;13829;48.990;8.346;2023-04-06T09:02:43;14.80;63.90
5055;DHT22;13829;48.990;8.346;2023-04-06T09:05:12;15.00;65.50
5055;DHT22;13829;48.990;8.346;2023-04-06T09:07:41;15.00;67.90
5055;DHT22;13829;48.990;8.346;2023-04-06T09:10:09;14.90;65.30
5055;DHT22;13829;48.990;8.346;2023-04-06T09:12:36;14.70;64.60
5055;DHT22;13829;48.990;8.346;2023-04-06T09:15:04;14.60;65.60
5055;DHT22;13829;48.990;8.346;2023-04-06T09:17:32;14.40;66.70
5055;DHT22;13829;48.990;8.346;2023-04-06T09:20:00;14.50;64.40
5055;DHT22;13829;48.990;8.346;2023-04-06T09:22:35;14.30;65.40
5055;DHT22;13829;48.990;8.346;2023-04-06T09:25:06;14.20;65.50
5055;DHT22;13829;48.990;8.346;2023-04-06T09:27:36;14.10;67.00
5055;DHT22;13829;48.990;8.346;2023-04-06T09:30:06;13.80;66.20
5055;DHT22;13829;48.990;8.346;2023-04-06T09:32:45;13.50;68.80
5055;DHT22;13829;48.990;8.346;2023-04-06T09:35:14;13.30;66.20
5055;DHT22;13829;48.990;8.346;2023-04-06T09:37:42;13.10;67.20
5055;DHT22;13829;48.990;8.346;2023-04-06T09:40:12;12.90;68.50
5055;DHT22;13829;48.990;8.346;2023-04-06T09:42:41;12.60;70.90
5055;DHT22;13829;48.990;8.346;2023-04-06T09:45:09;12.30;67.90
5055;DHT22;13829;48.990;8.346;2023-04-06T09:47:37;12.40;74.90
5055;DHT22;13829;48.990;8.346;2023-04-06T09:50:07;12.50;67.60
5055;DHT22;13829;48.990;8.346;2023-04-06T09:52:40;12.50;72.70
5055;DHT22;13829;48.990;8.346;2023-04-06T09:55:20;12.60;69.70
5055;DHT22;13829;48.990;8.346;2023-04-06T09:57:55;12.60;69.00
5055;DHT22;13829;48.990;8.346;2023-04-06T10:00:29;12.50;68.10
5055;DHT22;13829;48.990;8.346;2023-04-06T10:03:04;12.40;69.50
5055;DHT22;13829;48.990;8.346;2023-04-06T10:05:45;12.30;68.10
5055;DHT22;13829;48.990;8.346;2023-04-06T10:08:17;12.30;70.70
5055;DHT22;13829;48.990;8.346;2023-04-06T10:10:50;12.40;68.40
5055;DHT22;13829;48.990;8.346;2023-04-06T10:13:19;12.40;66.20
5055;DHT22;13829;48.990;8.346;2023-04-06T10:15:50;12.40;67.20
5055;DHT22;13829;48.990;8.346;2023-04-06T10:18:18;12.40;66.80
5055;DHT22;13829;48.990;8.346;2023-04-06T10:20:49;12.30;65.50
5055;DHT22;13829;48.990;8.346;2023-04-06T10:23:26;12.40;67.20
5055;DHT22;13829;48.990;8.346;2023-04-06T10:26:01;12.60;67.30
5055;DHT22;13829;48.990;8.346;2023-04-06T10:28:31;12.60;65.10
5055;DHT22;13829;48.990;8.346;2023-04-06T10:31:03;12.70;67.20
5055;DHT22;13829;48.990;8.346;2023-04-06T10:33:32;12.70;65.60
5055;DHT22;13829;48.990;8.346;2023-04-06T10:36:09;12.80;63.60
5055;DHT22;13829;48.990;8.346;2023-04-06T10:38:38;12.60;60.80
5055;DHT22;13829;48.990;8.346;2023-04-06T10:41:10;12.50;60.90
5055;DHT22;13829;48.990;8.346;2023-04-06T10:43:40;12.50;62.20
5055;DHT22;13829;48.990;8.346;2023-04-06T10:46:09;12.40;62.10
5055;DHT22;13829;48.990;8.346;2023-04-06T10:48:38;12.50;62.10
5055;DHT22;13829;48.990;8.346;2023-04-06T10:51:11;12.50;60.70
5055;DHT22;13829;48.990;8.346;2023-04-06T10:53:41;12.70;62.00
5055;DHT22;13829;48.990;8.346;2023-04-06T10:56:11;12.70;59.60
5055;DHT22;13829;48.990;8.346;2023-04-06T10:58:45;12.80;59.40
5055;DHT22;13829;48.990;8.346;2023-04-06T11:01:14;12.90;57.50
5055;DHT22;13829;48.990;8.346;2023-04-06T11:03:43;13.10;60.70
5055;DHT22;13829;48.990;8.346;2023-04-06T11:06:18;13.20;61.00
5055;DHT22;13829;48.990;8.346;2023-04-06T11:08:46;13.30;58.50
5055;DHT22;13829;48.990;8.346;2023-04-06T11:11:16;13.30;59.40
5055;DHT22;13829;48.990;8.346;2023-04-06T11:13:46;13.40;60.00
5055;DHT22;13829;48.990;8.346;2023-04-06T11:16:16;13.40;59.80
5055;DHT22;13829;48.990;8.346;2023-04-06T11:18:53;13.50;61.40
5055;DHT22;13829;48.990;8.346;2023-04-06T11:21:33;13.60;62.00
5055;DHT22;13829;48.990;8.346;2023-04-06T11:24:09;13.70;59.80
5055;DHT22;13829;48.990;8.346;2023-04-06T11:26:41;13.70;59.10
5055;DHT22;13829;48.990;8.346;2023-04-06T11:29:10;13.90;59.80
5055;DHT22;13829;48.990;8.346;2023-04-06T11:31:42;14.00;60.00
5055;DHT22;13829;48.990;8.346;2023-04-06T11:34:13;14.00;57.40
5055;DHT22;13829;48.990;8.346;2023-04-06T11:36:44;14.10;59.00
5055;DHT22;13829;48.990;8.346;2023-04-06T11:39:12;14.40;60.80
5055;DHT22;13829;48.990;8.346;2023-04-06T11:41:47;14.50;60.80
5055;DHT22;13829;48.990;8.346;2023-04-06T11:44:15;14.70;60.60
5055;DHT22;13829;48.990;8.346;2023-04-06T11:46:51;14.70;57.20
5055;DHT22;13829;48.990;8.346;2023-04-06T11:49:19;14.50;57.60
5055;DHT22;13829;48.990;8.346;2023-04-06T11:51:46;14.40;56.70
5055;DHT22;13829;48.990;8.346;2023-04-06T11:54:13;14.40;56.40
5055;DHT22;13829;48.990;8.346;2023-04-06T11:56:46;14.40;57.40
5055;DHT22;13829;48.990;8.346;2023-04-06T11:59:13;14.50;57.40
5055;DHT22;13829;48.990;8.346;2023-04-06T12:01:45;14.40;57.20
5055;DHT22;13829;48.990;8.346;2023-04-06T12:04:12;14.70;59.50
5055;DHT22;13829;48.990;8.346;2023-04-06T12:06:40;14.90;57.20
5055;DHT22;13829;48.990;8.346;2023-04-06T12:09:07;15.10;56.30
5055;DHT22;13829;48.990;8.346;2023-04-06T12:11:34;15.20;57.10
5055;DHT22;13829;48.990;8.346;2023-04-06T12:14:04;15.30;58.20
5055;DHT22;13829;48.990;8.346;2023-04-06T12:16:32;15.40;57.10
5055;DHT22;13829;48.990;8.346;2023-04-06T12:19:00;15.40;55.60
5055;DHT22;13829;48.990;8.346;2023-04-06T12:21:27;15.30;55.70
5055;DHT22;13829;48.990;8.346;2023-04-06T12:23:56;15.50;57.10
5055;DHT22;13829;48.990;8.346;2023-04-06T12:26:23;15.60;57.00
5055;DHT22;13829;48.990;8.346;2023-04-06T12:28:51;15.60;55.90
5055;DHT22;13829;48.990;8.346;2023-04-06T12:31:20;15.60;55.10
5055;DHT22;13829;48.990;8.346;2023-04-06T12:33:49;15.60;55.70
5055;DHT22;13829;48.990;8.346;2023-04-06T12:36:19;15.50;55.30
5055;DHT22;13829;48.990;8.346;2023-04-06T12:38:47;15.30;55.20
5055;DHT22;13829;48.990;8.346;2023-04-06T12:41:16;15.30;55.20
5055;DHT22;13829;48.990;8.346;2023-04-06T12:43:45;15.30;55.40
5055;DHT22;13829;48.990;8.346;2023-04-06T12:46:12;15.40;53.90
5055;DHT22;13829;48.990;8.346;2023-04-06T12:48:41;15.50;54.10
5055;DHT22;13829;48.990;8.346;2023-04-06T12:51:08;15.60;53.10
5055;DHT22;13829;48.990;8.346;2023-04-06T12:53:35;15.60;53.50
5055;DHT22;13829;48.990;8.346;2023-04-06T12:56:11;15.60;54.00
5055;DHT22;13829;48.990;8.346;2023-04-06T12:58:41;15.60;50.90
5055;DHT22;13829;48.990;8.346;2023-04-06T13:01:08;15.60;51.30
5055;DHT22;13829;48.990;8.346;2023-04-06T13:03:37;15.60;52.00
5055;DHT22;13829;48.990;8.346;2023-04-06T13:06:05;15.50;52.30
5055;DHT22;13829;48.990;8.346;2023-04-06T13:08:34;15.50;50.50
5055;DHT22;13829;48.990;8.346;2023-04-06T13:11:05;15.40;50.70
5055;DHT22;13829;48.990;8.346;2023-04-06T13:13:34;15.40;50.80
5055;DHT22;13829;48.990;8.346;2023-04-06T13:16:03;15.50;49.90
5055;DHT22;13829;48.990;8.346;2023-04-06T13:18:33;15.50;48.60
5055;DHT22;13829;48.990;8.346;2023-04-06T13:21:02;15.60;48.90
5055;DHT22;13829;48.990;8.346;2023-04-06T13:23:30;15.60;49.30
5055;DHT22;13829;48.990;8.346;2023-04-06T13:25:58;15.70;48.90
5055;DHT22;13829;48.990;8.346;2023-04-06T13:28:27;15.80;50.10
5055;DHT22;13829;48.990;8.346;2023-04-06T13:30:55;15.80;47.80
5055;DHT22;13829;48.990;8.346;2023-04-06T13:33:23;15.80;51.60
5055;DHT22;13829;48.990;8.346;2023-04-06T13:35:50;15.90;48.20
5055;DHT22;13829;48.990;8.346;2023-04-06T13:38:17;16.20;48.40
5055;DHT22;13829;48.990;8.346;2023-04-06T13:40:46;16.00;47.90
5055;DHT22;13829;48.990;8.346;2023-04-06T13:43:13;16.10;49.50
5055;DHT22;13829;48.990;8.346;2023-04-06T13:45:40;16.20;50.70
5055;DHT22;13829;48.990;8.346;2023-04-06T13:48:07;16.20;49.70
5055;DHT22;13829;48.990;8.346;2023-04-06T13:50:34;16.10;47.80
5055;DHT22;13829;48.990;8.346;2023-04-06T13:53:01;16.10;49.80
5055;DHT22;13829;48.990;8.346;2023-04-06T13:55:28;16.20;49.40
5055;DHT22;13829;48.990;8.346;2023-04-06T13:57:58;16.20;49.50
5055;DHT22;13829;48.990;8.346;2023-04-06T14:00:24;16.20;51.40
5055;DHT22;13829;48.990;8.346;2023-04-06T14:02:53;16.30;50.70
5055;DHT22;13829;48.990;8.346;2023-04-06T14:05:21;16.30;49.30
5055;DHT22;13829;48.990;8.346;2023-04-06T14:07:49;16.30;51.40
5055;DHT22;13829;48.990;8.346;2023-04-06T14:10:16;16.30;51.30
5055;DHT22;13829;48.990;8.346;2023-04-06T14:12:43;16.20;52.90
5055;DHT22;13829;48.990;8.346;2023-04-06T14:15:15;16.00;51.40
5055;DHT22;13829;48.990;8.346;2023-04-06T14:17:42;16.00;50.80
5055;DHT22;13829;48.990;8.346;2023-04-06T14:20:09;16.00;53.90
5055;DHT22;13829;48.990;8.346;2023-04-06T14:22:39;16.10;51.00
5055;DHT22;13829;48.990;8.346;2023-04-06T14:25:08;16.10;53.60
5055;DHT22;13829;48.990;8.346;2023-04-06T14:27:36;16.20;53.70
5055;DHT22;13829;48.990;8.346;2023-04-06T14:30:04;16.20;53.20
5055;DHT22;13829;48.990;8.346;2023-04-06T14:32:33;16.10;53.10
5055;DHT22;13829;48.990;8.346;2023-04-06T14:35:02;16.00;53.10
5055;DHT22;13829;48.990;8.346;2023-04-06T14:37:29;15.70;52.80
5055;DHT22;13829;48.990;8.346;2023-04-06T14:39:56;15.50;52.70
5055;DHT22;13829;48.990;8.346;2023-04-06T14:42:23;15.40;51.80
5055;DHT22;13829;48.990;8.346;2023-04-06T14:44:50;15.50;52.90
5055;DHT22;13829;48.990;8.346;2023-04-06T14:47:19;15.40;52.10
5055;DHT22;13829;48.990;8.346;2023-04-06T14:49:50;15.40;52.50
5055;DHT22;13829;48.990;8.346;2023-04-06T14:52:18;15.40;52.20
5055;DHT22;13829;48.990;8.346;2023-04-06T14:54:46;15.40;53.50
5055;DHT22;13829;48.990;8.346;2023-04-06T14:57:13;15.30;52.80
5055;DHT22;13829;48.990;8.346;2023-04-06T14:59:40;15.50;54.00
5055;DHT22;13829;48.990;8.346;2023-04-06T15:02:07;15.40;56.40
5055;DHT22;13829;48.990;8.346;2023-04-06T15:04:34;15.40;54.60
5055;DHT22;13829;48.990;8.346;2023-04-06T15:07:03;15.30;55.70
5055;DHT22;13829;48.990;8.346;2023-04-06T15:09:30;15.20;53.20
5055;DHT22;13829;48.990;8.346;2023-04-06T15:11:57;15.10;53.90
5055;DHT22;13829;48.990;8.346;2023-04-06T15:14:24;15.00;53.60
5055;DHT22;13829;48.990;8.346;2023-04-06T15:16:51;15.00;53.60
5055;DHT22;13829;48.990;8.346;2023-04-06T15:19:18;15.00;55.00
5055;DHT22;13829;48.990;8.346;2023-04-06T15:21:45;15.10;54.20
5055;DHT22;13829;48.990;8.346;2023-04-06T15:24:13;15.00;56.70
5055;DHT22;13829;48.990;8.346;2023-04-06T15:26:40;15.10;55.60
5055;DHT22;13829;48.990;8.346;2023-04-06T15:29:07;15.00;55.90
5055;DHT22;13829;48.990;8.346;2023-04-06T15:31:34;15.00;54.90
5055;DHT22;13829;48.990;8.346;2023-04-06T15:34:02;14.90;55.00
5055;DHT22;13829;48.990;8.346;2023-04-06T15:36:29;14.90;55.70
5055;DHT22;13829;48.990;8.346;2023-04-06T15:38:57;14.80;55.10
5055;DHT22;13829;48.990;8.346;2023-04-06T15:41:26;14.90;55.70
5055;DHT22;13829;48.990;8.346;2023-04-06T15:43:53;14.80;57.30
5055;DHT22;13829;48.990;8.346;2023-04-06T15:46:22;14.70;57.30
5055;DHT22;13829;48.990;8.346;2023-04-06T15:48:50;14.60;56.50
5055;DHT22;13829;48.990;8.346;2023-04-06T15:51:17;14.60;55.60
5055;DHT22;13829;48.990;8.346;2023-04-06T15:53:44;14.70;57.90
5055;DHT22;13829;48.990;8.346;2023-04-06T15:56:11;14.60;56.90
5055;DHT22;13829;48.990;8.346;2023-04-06T15:58:41;14.60;56.40